sensor_id;sensor_type;location;lat;lon;timestamp;P1;durP1;ratioP1;P2;durP2;ratioP2
40152;SDS011;26371;56.992;23.912;2023-04-03T00:01:22;6.88;;;1.65;;
40152;SDS011;26371;56.992;23.912;2023-04-03T00:03:51;4.63;;;0.88;;
40152;SDS011;26371;56.992;23.912;2023-04-03T00:06:19;10.10;;;1.40;;
40152;SDS011;26371;56.992;23.912;2023-04-03T00:08:49;3.85;;;1.00;;
40152;SDS011;26371;56.992;23.912;2023-04-03T00:11:18;7.05;;;1.35;;
40152;SDS011;26371;56.992;23.912;2023-04-03T00:16:18;9.10;;;1.27;;
40152;SDS011;26371;56.992;23.912;2023-04-03T00:18:47;2.75;;;0.80;;
40152;SDS011;26371;56.992;23.912;2023-04-03T00:21:15;7.20;;;1.53;;
40152;SDS011;26371;56.992;23.912;2023-04-03T00:23:44;5.43;;;1.10;;
40152;SDS011;26371;56.992;23.912;2023-04-03T00:26:13;7.50;;;1.45;;
40152;SDS011;26371;56.992;23.912;2023-04-03T00:28:42;3.35;;;0.90;;
40152;SDS011;26371;56.992;23.912;2023-04-03T00:31:13;14.30;;;4.93;;
40152;SDS011;26371;56.992;23.912;2023-04-03T00:33:44;2.50;;;0.75;;
40152;SDS011;26371;56.992;23.912;2023-04-03T00:36:13;4.63;;;1.48;;
40152;SDS011;26371;56.992;23.912;2023-04-03T00:38:42;2.70;;;1.48;;
40152;SDS011;26371;56.992;23.912;2023-04-03T00:41:11;6.32;;;1.95;;
40152;SDS011;26371;56.992;23.912;2023-04-03T00:43:40;2.90;;;0.88;;
40152;SDS011;26371;56.992;23.912;2023-04-03T00:46:09;4.10;;;1.07;;
40152;SDS011;26371;56.992;23.912;2023-04-03T00:48:38;3.20;;;1.10;;
40152;SDS011;26371;56.992;23.912;2023-04-03T00:51:11;5.53;;;1.05;;
40152;SDS011;26371;56.992;23.912;2023-04-03T00:53:43;3.97;;;1.10;;
40152;SDS011;26371;56.992;23.912;2023-04-03T00:56:13;6.45;;;1.70;;
40152;SDS011;26371;56.992;23.912;2023-04-03T00:58:43;5.35;;;1.17;;
40152;SDS011;26371;56.992;23.912;2023-04-03T01:01:14;4.00;;;1.00;;
40152;SDS011;26371;56.992;23.912;2023-04-03T01:03:44;4.72;;;1.27;;
40152;SDS011;26371;56.992;23.912;2023-04-03T01:06:16;4.00;;;1.10;;
40152;SDS011;26371;56.992;23.912;2023-04-03T01:08:47;5.53;;;1.10;;
40152;SDS011;26371;56.992;23.912;2023-04-03T01:11:17;5.95;;;1.75;;
40152;SDS011;26371;56.992;23.912;2023-04-03T01:13:48;4.00;;;0.95;;
40152;SDS011;26371;56.992;23.912;2023-04-03T01:16:17;5.53;;;1.42;;
40152;SDS011;26371;56.992;23.912;2023-04-03T01:18:46;4.82;;;0.98;;
40152;SDS011;26371;56.992;23.912;2023-04-03T01:24:22;10.15;;;2.90;;
40152;SDS011;26371;56.992;23.912;2023-04-03T01:26:54;4.82;;;1.00;;
40152;SDS011;26371;56.992;23.912;2023-04-03T01:29:23;3.53;;;1.10;;
40152;SDS011;26371;56.992;23.912;2023-04-03T01:31:54;40.27;;;14.37;;
40152;SDS011;26371;56.992;23.912;2023-04-03T01:34:24;8.48;;;1.73;;
40152;SDS011;26371;56.992;23.912;2023-04-03T01:36:53;3.95;;;1.25;;
40152;SDS011;26371;56.992;23.912;2023-04-03T01:39:22;7.35;;;1.50;;
40152;SDS011;26371;56.992;23.912;2023-04-03T01:41:51;6.10;;;1.30;;
40152;SDS011;26371;56.992;23.912;2023-04-03T01:44:33;6.50;;;1.70;;
40152;SDS011;26371;56.992;23.912;2023-04-03T01:47:03;6.13;;;1.40;;
40152;SDS011;26371;56.992;23.912;2023-04-03T01:49:34;7.78;;;1.35;;
40152;SDS011;26371;56.992;23.912;2023-04-03T01:52:03;5.40;;;1.38;;
40152;SDS011;26371;56.992;23.912;2023-04-03T01:54:32;6.97;;;1.23;;
40152;SDS011;26371;56.992;23.912;2023-04-03T01:57:01;5.60;;;2.00;;
40152;SDS011;26371;56.992;23.912;2023-04-03T01:59:30;10.93;;;3.22;;
40152;SDS011;26371;56.992;23.912;2023-04-03T02:02:00;9.93;;;3.30;;
40152;SDS011;26371;56.992;23.912;2023-04-03T02:04:30;6.85;;;1.30;;
40152;SDS011;26371;56.992;23.912;2023-04-03T02:06:59;5.15;;;1.70;;
40152;SDS011;26371;56.992;23.912;2023-04-03T02:09:28;5.47;;;1.67;;
40152;SDS011;26371;56.992;23.912;2023-04-03T02:11:57;5.57;;;1.73;;
40152;SDS011;26371;56.992;23.912;2023-04-03T02:14:26;5.40;;;1.40;;
40152;SDS011;26371;56.992;23.912;2023-04-03T02:16:55;3.67;;;1.13;;
40152;SDS011;26371;56.992;23.912;2023-04-03T02:19:24;3.23;;;1.13;;
40152;SDS011;26371;56.992;23.912;2023-04-03T02:21:54;8.03;;;2.20;;
40152;SDS011;26371;56.992;23.912;2023-04-03T02:24:23;4.75;;;1.02;;
40152;SDS011;26371;56.992;23.912;2023-04-03T02:26:52;7.20;;;1.23;;
40152;SDS011;26371;56.992;23.912;2023-04-03T02:29:20;4.90;;;1.40;;
40152;SDS011;26371;56.992;23.912;2023-04-03T02:31:50;3.72;;;1.30;;
40152;SDS011;26371;56.992;23.912;2023-04-03T02:34:21;7.03;;;1.95;;
40152;SDS011;26371;56.992;23.912;2023-04-03T02:36:51;5.25;;;1.33;;
40152;SDS011;26371;56.992;23.912;2023-04-03T02:39:21;4.30;;;1.43;;
40152;SDS011;26371;56.992;23.912;2023-04-03T02:41:50;7.03;;;1.50;;
40152;SDS011;26371;56.992;23.912;2023-04-03T02:44:22;8.25;;;2.67;;
40152;SDS011;26371;56.992;23.912;2023-04-03T02:46:52;6.50;;;1.63;;
40152;SDS011;26371;56.992;23.912;2023-04-03T02:49:22;6.72;;;2.22;;
40152;SDS011;26371;56.992;23.912;2023-04-03T02:51:51;6.87;;;1.60;;
40152;SDS011;26371;56.992;23.912;2023-04-03T02:54:19;4.43;;;1.50;;
40152;SDS011;26371;56.992;23.912;2023-04-03T02:56:54;6.43;;;1.73;;
40152;SDS011;26371;56.992;23.912;2023-04-03T02:59:23;10.10;;;2.92;;
40152;SDS011;26371;56.992;23.912;2023-04-03T03:01:52;5.72;;;2.28;;
40152;SDS011;26371;56.992;23.912;2023-04-03T03:04:22;6.82;;;1.98;;
40152;SDS011;26371;56.992;23.912;2023-04-03T03:06:51;7.25;;;1.98;;
40152;SDS011;26371;56.992;23.912;2023-04-03T03:09:20;4.88;;;1.60;;
40152;SDS011;26371;56.992;23.912;2023-04-03T03:11:48;4.43;;;1.33;;
40152;SDS011;26371;56.992;23.912;2023-04-03T03:14:18;7.45;;;2.65;;
40152;SDS011;26371;56.992;23.912;2023-04-03T03:16:47;8.15;;;2.50;;
40152;SDS011;26371;56.992;23.912;2023-04-03T03:19:16;5.65;;;1.63;;
40152;SDS011;26371;56.992;23.912;2023-04-03T03:21:46;16.90;;;4.85;;
40152;SDS011;26371;56.992;23.912;2023-04-03T03:24:15;7.90;;;2.20;;
40152;SDS011;26371;56.992;23.912;2023-04-03T03:26:43;5.32;;;1.85;;
40152;SDS011;26371;56.992;23.912;2023-04-03T03:29:12;7.97;;;1.98;;
40152;SDS011;26371;56.992;23.912;2023-04-03T03:31:43;7.70;;;3.00;;
40152;SDS011;26371;56.992;23.912;2023-04-03T03:34:12;6.57;;;1.85;;
40152;SDS011;26371;56.992;23.912;2023-04-03T03:36:40;6.82;;;2.28;;
40152;SDS011;26371;56.992;23.912;2023-04-03T03:39:09;7.53;;;1.80;;
40152;SDS011;26371;56.992;23.912;2023-04-03T03:41:38;8.13;;;2.53;;
40152;SDS011;26371;56.992;23.912;2023-04-03T03:44:07;5.00;;;2.15;;
40152;SDS011;26371;56.992;23.912;2023-04-03T03:46:36;7.45;;;1.85;;
40152;SDS011;26371;56.992;23.912;2023-04-03T03:49:06;5.53;;;2.08;;
40152;SDS011;26371;56.992;23.912;2023-04-03T03:51:35;6.60;;;2.35;;
40152;SDS011;26371;56.992;23.912;2023-04-03T03:56:35;11.65;;;4.20;;
40152;SDS011;26371;56.992;23.912;2023-04-03T03:59:04;5.88;;;1.58;;
40152;SDS011;26371;56.992;23.912;2023-04-03T04:01:33;7.30;;;2.05;;
40152;SDS011;26371;56.992;23.912;2023-04-03T04:04:02;10.27;;;2.92;;
40152;SDS011;26371;56.992;23.912;2023-04-03T04:06:34;5.45;;;1.80;;
40152;SDS011;26371;56.992;23.912;2023-04-03T04:09:06;9.93;;;3.53;;
40152;SDS011;26371;56.992;23.912;2023-04-03T04:11:34;5.57;;;1.98;;
40152;SDS011;26371;56.992;23.912;2023-04-03T04:14:03;8.40;;;2.80;;
40152;SDS011;26371;56.992;23.912;2023-04-03T04:16:32;5.45;;;1.90;;
40152;SDS011;26371;56.992;23.912;2023-04-03T04:19:07;6.38;;;1.77;;
40152;SDS011;26371;56.992;23.912;2023-04-03T04:21:39;4.65;;;2.10;;
40152;SDS011;26371;56.992;23.912;2023-04-03T04:24:08;5.85;;;1.48;;
40152;SDS011;26371;56.992;23.912;2023-04-03T04:26:38;4.85;;;1.60;;
40152;SDS011;26371;56.992;23.912;2023-04-03T04:29:09;8.82;;;2.20;;
40152;SDS011;26371;56.992;23.912;2023-04-03T04:31:38;5.38;;;1.63;;
40152;SDS011;26371;56.992;23.912;2023-04-03T04:34:07;6.22;;;2.17;;
40152;SDS011;26371;56.992;23.912;2023-04-03T04:36:38;5.68;;;1.92;;
40152;SDS011;26371;56.992;23.912;2023-04-03T04:39:07;5.25;;;1.92;;
40152;SDS011;26371;56.992;23.912;2023-04-03T04:41:38;4.88;;;1.95;;
40152;SDS011;26371;56.992;23.912;2023-04-03T04:44:08;7.25;;;1.98;;
40152;SDS011;26371;56.992;23.912;2023-04-03T04:46:38;6.18;;;1.77;;
40152;SDS011;26371;56.992;23.912;2023-04-03T04:51:38;4.18;;;1.45;;
40152;SDS011;26371;56.992;23.912;2023-04-03T04:54:21;5.72;;;1.70;;
40152;SDS011;26371;56.992;23.912;2023-04-03T04:56:51;7.40;;;1.80;;
40152;SDS011;26371;56.992;23.912;2023-04-03T04:59:21;5.45;;;2.17;;
40152;SDS011;26371;56.992;23.912;2023-04-03T05:01:52;5.32;;;1.85;;
40152;SDS011;26371;56.992;23.912;2023-04-03T05:04:21;6.43;;;2.03;;
40152;SDS011;26371;56.992;23.912;2023-04-03T05:06:57;5.45;;;1.73;;
40152;SDS011;26371;56.992;23.912;2023-04-03T05:09:28;7.40;;;2.00;;
40152;SDS011;26371;56.992;23.912;2023-04-03T05:11:57;5.40;;;1.85;;
40152;SDS011;26371;56.992;23.912;2023-04-03T05:14:30;4.85;;;2.03;;
40152;SDS011;26371;56.992;23.912;2023-04-03T05:17:03;10.02;;;1.90;;
40152;SDS011;26371;56.992;23.912;2023-04-03T05:19:35;6.60;;;1.83;;
40152;SDS011;26371;56.992;23.912;2023-04-03T05:22:07;6.00;;;1.30;;
40152;SDS011;26371;56.992;23.912;2023-04-03T05:24:35;7.10;;;2.45;;
40152;SDS011;26371;56.992;23.912;2023-04-03T05:27:05;3.33;;;1.08;;
40152;SDS011;26371;56.992;23.912;2023-04-03T05:29:37;4.97;;;1.77;;
40152;SDS011;26371;56.992;23.912;2023-04-03T05:32:16;7.10;;;1.60;;
40152;SDS011;26371;56.992;23.912;2023-04-03T05:34:48;6.28;;;1.80;;
40152;SDS011;26371;56.992;23.912;2023-04-03T05:37:20;5.93;;;1.75;;
40152;SDS011;26371;56.992;23.912;2023-04-03T05:39:50;8.77;;;2.00;;
40152;SDS011;26371;56.992;23.912;2023-04-03T05:42:20;7.72;;;1.60;;
40152;SDS011;26371;56.992;23.912;2023-04-03T05:44:49;6.50;;;1.43;;
40152;SDS011;26371;56.992;23.912;2023-04-03T05:47:17;7.13;;;1.67;;
40152;SDS011;26371;56.992;23.912;2023-04-03T05:49:47;8.45;;;1.70;;
40152;SDS011;26371;56.992;23.912;2023-04-03T05:52:18;6.82;;;1.75;;
40152;SDS011;26371;56.992;23.912;2023-04-03T05:54:52;9.82;;;2.47;;
40152;SDS011;26371;56.992;23.912;2023-04-03T05:57:25;7.20;;;2.03;;
40152;SDS011;26371;56.992;23.912;2023-04-03T05:59:54;5.10;;;1.58;;
40152;SDS011;26371;56.992;23.912;2023-04-03T06:02:24;5.97;;;1.80;;
40152;SDS011;26371;56.992;23.912;2023-04-03T06:04:53;6.85;;;2.45;;
40152;SDS011;26371;56.992;23.912;2023-04-03T06:07:24;10.77;;;2.33;;
40152;SDS011;26371;56.992;23.912;2023-04-03T06:09:55;6.75;;;1.80;;
40152;SDS011;26371;56.992;23.912;2023-04-03T06:12:24;6.97;;;1.42;;
40152;SDS011;26371;56.992;23.912;2023-04-03T06:14:56;6.90;;;2.03;;
40152;SDS011;26371;56.992;23.912;2023-04-03T06:17:25;6.47;;;1.57;;
40152;SDS011;26371;56.992;23.912;2023-04-03T06:19:54;6.78;;;1.65;;
40152;SDS011;26371;56.992;23.912;2023-04-03T06:22:26;6.70;;;2.10;;
40152;SDS011;26371;56.992;23.912;2023-04-03T06:24:56;7.38;;;1.88;;
40152;SDS011;26371;56.992;23.912;2023-04-03T06:27:25;7.53;;;2.30;;
40152;SDS011;26371;56.992;23.912;2023-04-03T06:29:55;8.38;;;2.30;;
40152;SDS011;26371;56.992;23.912;2023-04-03T06:32:24;7.55;;;1.88;;
40152;SDS011;26371;56.992;23.912;2023-04-03T06:34:55;9.00;;;2.17;;
40152;SDS011;26371;56.992;23.912;2023-04-03T06:37:32;5.38;;;1.77;;
40152;SDS011;26371;56.992;23.912;2023-04-03T06:40:01;6.93;;;2.70;;
40152;SDS011;26371;56.992;23.912;2023-04-03T06:42:31;7.28;;;2.20;;
40152;SDS011;26371;56.992;23.912;2023-04-03T06:45:07;10.68;;;3.33;;
40152;SDS011;26371;56.992;23.912;2023-04-03T06:47:38;5.95;;;1.38;;
40152;SDS011;26371;56.992;23.912;2023-04-03T06:50:08;7.55;;;1.88;;
40152;SDS011;26371;56.992;23.912;2023-04-03T06:52:39;8.30;;;2.15;;
40152;SDS011;26371;56.992;23.912;2023-04-03T06:55:08;8.20;;;3.25;;
40152;SDS011;26371;56.992;23.912;2023-04-03T06:57:37;7.20;;;1.50;;
40152;SDS011;26371;56.992;23.912;2023-04-03T07:00:06;10.27;;;3.28;;
40152;SDS011;26371;56.992;23.912;2023-04-03T07:02:36;10.15;;;1.80;;
40152;SDS011;26371;56.992;23.912;2023-04-03T07:05:05;9.23;;;1.98;;
40152;SDS011;26371;56.992;23.912;2023-04-03T07:07:35;9.85;;;2.25;;
40152;SDS011;26371;56.992;23.912;2023-04-03T07:10:07;5.25;;;1.77;;
40152;SDS011;26371;56.992;23.912;2023-04-03T07:12:37;5.32;;;1.55;;
40152;SDS011;26371;56.992;23.912;2023-04-03T07:15:09;4.63;;;1.97;;
40152;SDS011;26371;56.992;23.912;2023-04-03T07:17:42;5.55;;;1.50;;
40152;SDS011;26371;56.992;23.912;2023-04-03T07:20:13;5.55;;;1.30;;
40152;SDS011;26371;56.992;23.912;2023-04-03T07:22:43;6.13;;;1.55;;
40152;SDS011;26371;56.992;23.912;2023-04-03T07:25:14;8.63;;;2.72;;
40152;SDS011;26371;56.992;23.912;2023-04-03T07:27:43;9.07;;;2.20;;
40152;SDS011;26371;56.992;23.912;2023-04-03T07:30:12;5.57;;;1.25;;
40152;SDS011;26371;56.992;23.912;2023-04-03T07:32:41;7.43;;;1.88;;
40152;SDS011;26371;56.992;23.912;2023-04-03T07:35:10;16.58;;;3.97;;
40152;SDS011;26371;56.992;23.912;2023-04-03T07:37:39;6.13;;;1.38;;
40152;SDS011;26371;56.992;23.912;2023-04-03T07:40:08;5.57;;;1.27;;
40152;SDS011;26371;56.992;23.912;2023-04-03T07:42:39;7.43;;;1.20;;
40152;SDS011;26371;56.992;23.912;2023-04-03T07:45:08;5.65;;;2.03;;
40152;SDS011;26371;56.992;23.912;2023-04-03T07:47:39;7.85;;;2.08;;
40152;SDS011;26371;56.992;23.912;2023-04-03T07:50:08;5.32;;;1.40;;
40152;SDS011;26371;56.992;23.912;2023-04-03T07:52:37;4.63;;;1.25;;
40152;SDS011;26371;56.992;23.912;2023-04-03T07:55:06;5.38;;;1.42;;
40152;SDS011;26371;56.992;23.912;2023-04-03T07:57:35;5.55;;;1.30;;
40152;SDS011;26371;56.992;23.912;2023-04-03T08:00:07;6.07;;;1.60;;
40152;SDS011;26371;56.992;23.912;2023-04-03T08:02:39;5.97;;;1.33;;
40152;SDS011;26371;56.992;23.912;2023-04-03T08:05:08;4.22;;;1.10;;
40152;SDS011;26371;56.992;23.912;2023-04-03T08:07:37;6.20;;;1.30;;
40152;SDS011;26371;56.992;23.912;2023-04-03T08:10:06;6.30;;;1.40;;
40152;SDS011;26371;56.992;23.912;2023-04-03T08:15:06;5.78;;;1.70;;
40152;SDS011;26371;56.992;23.912;2023-04-03T08:17:36;6.20;;;1.38;;
40152;SDS011;26371;56.992;23.912;2023-04-03T08:20:06;6.40;;;1.13;;
40152;SDS011;26371;56.992;23.912;2023-04-03T08:22:36;6.00;;;1.30;;
40152;SDS011;26371;56.992;23.912;2023-04-03T08:25:05;3.40;;;1.10;;
40152;SDS011;26371;56.992;23.912;2023-04-03T08:27:34;2.78;;;0.93;;
40152;SDS011;26371;56.992;23.912;2023-04-03T08:30:04;7.38;;;1.48;;
40152;SDS011;26371;56.992;23.912;2023-04-03T08:35:04;4.50;;;1.08;;
40152;SDS011;26371;56.992;23.912;2023-04-03T08:37:34;4.20;;;1.05;;
40152;SDS011;26371;56.992;23.912;2023-04-03T08:40:04;4.50;;;1.15;;
40152;SDS011;26371;56.992;23.912;2023-04-03T08:45:04;8.70;;;1.58;;
40152;SDS011;26371;56.992;23.912;2023-04-03T08:47:37;6.03;;;1.05;;
40152;SDS011;26371;56.992;23.912;2023-04-03T08:50:12;3.92;;;1.15;;
40152;SDS011;26371;56.992;23.912;2023-04-03T08:52:44;5.60;;;1.08;;
40152;SDS011;26371;56.992;23.912;2023-04-03T08:55:19;4.38;;;1.27;;
40152;SDS011;26371;56.992;23.912;2023-04-03T08:57:53;6.38;;;1.42;;
40152;SDS011;26371;56.992;23.912;2023-04-03T09:00:30;6.13;;;1.20;;
40152;SDS011;26371;56.992;23.912;2023-04-03T09:03:10;7.57;;;1.13;;
40152;SDS011;26371;56.992;23.912;2023-04-03T09:05:43;6.22;;;1.27;;
40152;SDS011;26371;56.992;23.912;2023-04-03T09:08:21;4.55;;;1.20;;
40152;SDS011;26371;56.992;23.912;2023-04-03T09:10:57;8.05;;;1.17;;
40152;SDS011;26371;56.992;23.912;2023-04-03T09:13:35;5.10;;;1.10;;
40152;SDS011;26371;56.992;23.912;2023-04-03T09:16:15;10.18;;;1.42;;
40152;SDS011;26371;56.992;23.912;2023-04-03T09:18:57;6.38;;;1.10;;
40152;SDS011;26371;56.992;23.912;2023-04-03T09:21:34;6.00;;;1.13;;
40152;SDS011;26371;56.992;23.912;2023-04-03T09:24:07;5.88;;;1.10;;
40152;SDS011;26371;56.992;23.912;2023-04-03T09:26:41;3.88;;;1.10;;
40152;SDS011;26371;56.992;23.912;2023-04-03T09:29:14;7.65;;;1.38;;
40152;SDS011;26371;56.992;23.912;2023-04-03T09:31:48;6.07;;;1.25;;
40152;SDS011;26371;56.992;23.912;2023-04-03T09:34:20;2.92;;;0.80;;
40152;SDS011;26371;56.992;23.912;2023-04-03T09:36:55;3.65;;;1.20;;
40152;SDS011;26371;56.992;23.912;2023-04-03T09:39:25;6.00;;;1.15;;
40152;SDS011;26371;56.992;23.912;2023-04-03T09:41:56;3.17;;;1.00;;
40152;SDS011;26371;56.992;23.912;2023-04-03T09:44:29;4.65;;;1.00;;
40152;SDS011;26371;56.992;23.912;2023-04-03T09:46:59;4.20;;;1.20;;
40152;SDS011;26371;56.992;23.912;2023-04-03T09:49:44;3.58;;;1.00;;
40152;SDS011;26371;56.992;23.912;2023-04-03T09:52:22;6.55;;;1.52;;
40152;SDS011;26371;56.992;23.912;2023-04-03T09:54:53;4.80;;;1.05;;
40152;SDS011;26371;56.992;23.912;2023-04-03T09:57:21;5.95;;;1.10;;
40152;SDS011;26371;56.992;23.912;2023-04-03T09:59:56;4.75;;;1.17;;
40152;SDS011;26371;56.992;23.912;2023-04-03T10:02:34;4.28;;;1.00;;
40152;SDS011;26371;56.992;23.912;2023-04-03T10:05:05;3.83;;;0.70;;
40152;SDS011;26371;56.992;23.912;2023-04-03T10:08:08;3.25;;;0.77;;
40152;SDS011;26371;56.992;23.912;2023-04-03T10:10:39;9.80;;;1.08;;
40152;SDS011;26371;56.992;23.912;2023-04-03T10:13:10;3.55;;;1.02;;
40152;SDS011;26371;56.992;23.912;2023-04-03T10:15:48;3.22;;;0.73;;
40152;SDS011;26371;56.992;23.912;2023-04-03T10:18:27;5.68;;;1.00;;
40152;SDS011;26371;56.992;23.912;2023-04-03T10:21:02;4.00;;;0.88;;
40152;SDS011;26371;56.992;23.912;2023-04-03T10:23:49;3.25;;;1.00;;
40152;SDS011;26371;56.992;23.912;2023-04-03T10:26:26;4.18;;;1.02;;
40152;SDS011;26371;56.992;23.912;2023-04-03T10:29:06;3.80;;;0.90;;
40152;SDS011;26371;56.992;23.912;2023-04-03T10:31:44;3.53;;;0.88;;
40152;SDS011;26371;56.992;23.912;2023-04-03T10:34:21;4.53;;;1.00;;
40152;SDS011;26371;56.992;23.912;2023-04-03T10:36:53;5.70;;;1.13;;
40152;SDS011;26371;56.992;23.912;2023-04-03T10:39:32;6.05;;;0.95;;
40152;SDS011;26371;56.992;23.912;2023-04-03T10:42:08;7.70;;;1.40;;
40152;SDS011;26371;56.992;23.912;2023-04-03T10:47:40;5.57;;;0.82;;
40152;SDS011;26371;56.992;23.912;2023-04-03T10:50:22;6.60;;;0.90;;
40152;SDS011;26371;56.992;23.912;2023-04-03T10:52:58;3.20;;;0.75;;
40152;SDS011;26371;56.992;23.912;2023-04-03T10:55:35;5.45;;;1.17;;
40152;SDS011;26371;56.992;23.912;2023-04-03T10:58:09;3.58;;;0.73;;
40152;SDS011;26371;56.992;23.912;2023-04-03T11:00:45;5.30;;;1.30;;
40152;SDS011;26371;56.992;23.912;2023-04-03T11:03:22;3.63;;;0.82;;
40152;SDS011;26371;56.992;23.912;2023-04-03T11:05:59;4.40;;;0.77;;
40152;SDS011;26371;56.992;23.912;2023-04-03T11:08:30;3.45;;;0.80;;
40152;SDS011;26371;56.992;23.912;2023-04-03T11:11:07;4.50;;;0.90;;
40152;SDS011;26371;56.992;23.912;2023-04-03T11:13:40;5.07;;;1.05;;
40152;SDS011;26371;56.992;23.912;2023-04-03T11:16:12;6.15;;;0.85;;
40152;SDS011;26371;56.992;23.912;2023-04-03T11:18:47;9.85;;;2.08;;
40152;SDS011;26371;56.992;23.912;2023-04-03T11:21:20;5.55;;;1.17;;
40152;SDS011;26371;56.992;23.912;2023-04-03T11:23:52;7.13;;;2.05;;
40152;SDS011;26371;56.992;23.912;2023-04-03T11:26:27;6.68;;;0.85;;
40152;SDS011;26371;56.992;23.912;2023-04-03T11:28:59;2.97;;;0.93;;
40152;SDS011;26371;56.992;23.912;2023-04-03T11:31:34;6.30;;;0.98;;
40152;SDS011;26371;56.992;23.912;2023-04-03T11:34:08;5.18;;;0.95;;
40152;SDS011;26371;56.992;23.912;2023-04-03T11:36:49;26.48;;;13.10;;
40152;SDS011;26371;56.992;23.912;2023-04-03T11:39:22;6.05;;;2.10;;
40152;SDS011;26371;56.992;23.912;2023-04-03T11:41:55;6.82;;;1.65;;
40152;SDS011;26371;56.992;23.912;2023-04-03T11:44:40;12.70;;;6.50;;
40152;SDS011;26371;56.992;23.912;2023-04-03T11:47:10;9.32;;;3.65;;
40152;SDS011;26371;56.992;23.912;2023-04-03T11:58:24;72.63;;;27.02;;
40152;SDS011;26371;56.992;23.912;2023-04-03T12:01:07;35.97;;;14.70;;
40152;SDS011;26371;56.992;23.912;2023-04-03T12:04:09;37.17;;;18.27;;
40152;SDS011;26371;56.992;23.912;2023-04-03T12:06:43;25.63;;;13.43;;
40152;SDS011;26371;56.992;23.912;2023-04-03T12:09:22;25.13;;;11.20;;
40152;SDS011;26371;56.992;23.912;2023-04-03T12:11:54;15.45;;;6.43;;
40152;SDS011;26371;56.992;23.912;2023-04-03T12:14:26;4.65;;;1.42;;
40152;SDS011;26371;56.992;23.912;2023-04-03T12:16:56;6.90;;;1.40;;
40152;SDS011;26371;56.992;23.912;2023-04-03T12:19:33;4.63;;;1.00;;
40152;SDS011;26371;56.992;23.912;2023-04-03T12:22:13;7.95;;;1.75;;
40152;SDS011;26371;56.992;23.912;2023-04-03T12:24:46;4.43;;;0.80;;
40152;SDS011;26371;56.992;23.912;2023-04-03T12:27:26;6.43;;;1.02;;
40152;SDS011;26371;56.992;23.912;2023-04-03T12:30:04;7.03;;;0.90;;
40152;SDS011;26371;56.992;23.912;2023-04-03T12:32:43;5.97;;;0.80;;
40152;SDS011;26371;56.992;23.912;2023-04-03T12:35:39;5.57;;;0.97;;
40152;SDS011;26371;56.992;23.912;2023-04-03T12:38:28;7.30;;;1.10;;
40152;SDS011;26371;56.992;23.912;2023-04-03T12:41:23;9.40;;;1.23;;
40152;SDS011;26371;56.992;23.912;2023-04-03T12:44:03;11.50;;;1.10;;
40152;SDS011;26371;56.992;23.912;2023-04-03T12:47:01;2.83;;;0.80;;
40152;SDS011;26371;56.992;23.912;2023-04-03T12:49:37;2.33;;;0.70;;
40152;SDS011;26371;56.992;23.912;2023-04-03T12:52:16;4.85;;;1.00;;
40152;SDS011;26371;56.992;23.912;2023-04-03T12:54:58;4.50;;;1.17;;
40152;SDS011;26371;56.992;23.912;2023-04-03T12:57:30;5.85;;;1.17;;
40152;SDS011;26371;56.992;23.912;2023-04-03T13:00:00;7.43;;;1.83;;
40152;SDS011;26371;56.992;23.912;2023-04-03T13:02:49;5.00;;;0.80;;
40152;SDS011;26371;56.992;23.912;2023-04-03T13:05:18;7.00;;;1.13;;
40152;SDS011;26371;56.992;23.912;2023-04-03T13:07:49;6.35;;;1.10;;
40152;SDS011;26371;56.992;23.912;2023-04-03T13:10:20;8.60;;;1.52;;
40152;SDS011;26371;56.992;23.912;2023-04-03T13:12:49;11.07;;;1.27;;
40152;SDS011;26371;56.992;23.912;2023-04-03T13:15:20;5.53;;;1.15;;
40152;SDS011;26371;56.992;23.912;2023-04-03T13:17:53;9.30;;;1.10;;
40152;SDS011;26371;56.992;23.912;2023-04-03T13:20:24;5.97;;;1.27;;
40152;SDS011;26371;56.992;23.912;2023-04-03T13:22:56;8.70;;;1.10;;
40152;SDS011;26371;56.992;23.912;2023-04-03T13:25:27;5.68;;;1.35;;
40152;SDS011;26371;56.992;23.912;2023-04-03T13:27:58;58.83;;;28.08;;
40152;SDS011;26371;56.992;23.912;2023-04-03T13:30:40;48.63;;;20.90;;
40152;SDS011;26371;56.992;23.912;2023-04-03T13:33:21;28.80;;;11.23;;
40152;SDS011;26371;56.992;23.912;2023-04-03T13:35:54;22.92;;;10.70;;
40152;SDS011;26371;56.992;23.912;2023-04-03T13:38:26;30.65;;;14.57;;
40152;SDS011;26371;56.992;23.912;2023-04-03T13:40:59;38.97;;;20.05;;
40152;SDS011;26371;56.992;23.912;2023-04-03T13:43:30;16.45;;;9.05;;
40152;SDS011;26371;56.992;23.912;2023-04-03T13:46:03;24.67;;;12.45;;
40152;SDS011;26371;56.992;23.912;2023-04-03T13:48:39;11.75;;;4.88;;
40152;SDS011;26371;56.992;23.912;2023-04-03T13:51:17;9.48;;;1.83;;
40152;SDS011;26371;56.992;23.912;2023-04-03T13:53:49;9.43;;;1.55;;
40152;SDS011;26371;56.992;23.912;2023-04-03T13:56:22;6.32;;;1.20;;
40152;SDS011;26371;56.992;23.912;2023-04-03T13:59:01;14.32;;;6.20;;
40152;SDS011;26371;56.992;23.912;2023-04-03T14:01:49;13.98;;;4.18;;
40152;SDS011;26371;56.992;23.912;2023-04-03T14:04:23;11.43;;;2.95;;
40152;SDS011;26371;56.992;23.912;2023-04-03T14:06:53;8.52;;;1.60;;
40152;SDS011;26371;56.992;23.912;2023-04-03T14:09:23;6.18;;;1.10;;
40152;SDS011;26371;56.992;23.912;2023-04-03T14:11:54;6.60;;;1.10;;
40152;SDS011;26371;56.992;23.912;2023-04-03T14:14:27;8.25;;;1.65;;
40152;SDS011;26371;56.992;23.912;2023-04-03T14:17:00;5.35;;;2.00;;
40152;SDS011;26371;56.992;23.912;2023-04-03T14:19:33;4.78;;;1.00;;
40152;SDS011;26371;56.992;23.912;2023-04-03T14:22:10;6.72;;;1.10;;
40152;SDS011;26371;56.992;23.912;2023-04-03T14:24:42;4.35;;;1.30;;
40152;SDS011;26371;56.992;23.912;2023-04-03T14:27:13;7.25;;;1.40;;
40152;SDS011;26371;56.992;23.912;2023-04-03T14:29:46;6.38;;;0.82;;
40152;SDS011;26371;56.992;23.912;2023-04-03T14:32:16;5.22;;;0.95;;
40152;SDS011;26371;56.992;23.912;2023-04-03T14:34:47;7.50;;;1.30;;
40152;SDS011;26371;56.992;23.912;2023-04-03T14:37:18;8.55;;;1.30;;
40152;SDS011;26371;56.992;23.912;2023-04-03T14:39:49;7.13;;;1.15;;
40152;SDS011;26371;56.992;23.912;2023-04-03T14:45:15;5.47;;;1.38;;
40152;SDS011;26371;56.992;23.912;2023-04-03T14:50:18;7.15;;;1.88;;
40152;SDS011;26371;56.992;23.912;2023-04-03T14:52:50;7.65;;;1.40;;
40152;SDS011;26371;56.992;23.912;2023-04-03T14:55:21;7.72;;;1.30;;
40152;SDS011;26371;56.992;23.912;2023-04-03T14:57:51;3.92;;;1.13;;
40152;SDS011;26371;56.992;23.912;2023-04-03T15:00:21;3.92;;;1.27;;
40152;SDS011;26371;56.992;23.912;2023-04-03T15:02:50;4.80;;;1.10;;
40152;SDS011;26371;56.992;23.912;2023-04-03T15:05:21;7.75;;;1.38;;
40152;SDS011;26371;56.992;23.912;2023-04-03T15:07:54;9.63;;;1.55;;
40152;SDS011;26371;56.992;23.912;2023-04-03T15:10:24;8.32;;;1.42;;
40152;SDS011;26371;56.992;23.912;2023-04-03T15:12:55;12.50;;;3.30;;
40152;SDS011;26371;56.992;23.912;2023-04-03T15:15:27;27.27;;;12.25;;
40152;SDS011;26371;56.992;23.912;2023-04-03T15:17:59;79.13;;;29.02;;
40152;SDS011;26371;56.992;23.912;2023-04-03T15:20:29;75.07;;;24.23;;
40152;SDS011;26371;56.992;23.912;2023-04-03T15:23:00;46.67;;;15.20;;
40152;SDS011;26371;56.992;23.912;2023-04-03T15:25:29;46.00;;;22.88;;
40152;SDS011;26371;56.992;23.912;2023-04-03T15:27:59;148.50;;;70.05;;
40152;SDS011;26371;56.992;23.912;2023-04-03T15:30:28;54.63;;;21.52;;
40152;SDS011;26371;56.992;23.912;2023-04-03T15:32:57;132.80;;;63.67;;
40152;SDS011;26371;56.992;23.912;2023-04-03T15:35:26;72.73;;;36.83;;